This is the latest recevied weather packets stored in our database for station/object K1WJY. If no packets are shown the sender has not sent any weather packets the latest 10 day(s).
| Time | Temp. | Humidity | Pressure | Rain* | Wind** | Luminosity | Snow |
|---|---|---|---|---|---|---|---|
| 1787850822 | 24.44° C | 80% | 1020.6 hPa | 0 mm | - | 192 W/m² | - |
| 1787850518 | 23.89° C | 81% | 1020.6 hPa | 0 mm | - | 756 W/m² | - |
| 1787850213 | 24.44° C | 80% | 1020.8 hPa | 0 mm | - | 167 W/m² | - |
| 1787849907 | 24.44° C | 80% | 1020.8 hPa | 0 mm | - | 240 W/m² | - |
| 1787849608 | 25° C | 79% | 1021 hPa | 0 mm | - | 343 W/m² | - |
| 1787849307 | 24.44° C | 80% | 1021 hPa | 0 mm | - | 174 W/m² | - |
| 1787849007 | 25.56° C | 78% | 1021 hPa | 0 mm | - | 689 W/m² | - |
| 1787848702 | 25° C | 77% | 1021 hPa | 0 mm | - | 444 W/m² | - |
| 1787848397 | 25° C | 80% | 1020.9 hPa | 0 mm | - | 807 W/m² | - |
| 1787848096 | 25° C | 79% | 1021.3 hPa | 0 mm | - | 565 W/m² | - |
| 1787847796 | 24.44° C | 79% | 1021.3 hPa | 0 mm | - | 774 W/m² | - |
| 1787847492 | 23.89° C | 81% | 1021.2 hPa | 0 mm | - | 762 W/m² | - |
| 1787847187 | 25° C | 78% | 1021.2 hPa | 0 mm | - | 791 W/m² | - |
| 1787846884 | 25° C | 78% | 1021.5 hPa | 0 mm | - | 289 W/m² | - |
| 1787846583 | 24.44° C | 80% | 1021.3 hPa | 0 mm | - | 288 W/m² | - |
| 1787846278 | 25° C | 80% | 1021.3 hPa | 0 mm | - | 282 W/m² | - |
| 1787845974 | 24.44° C | 81% | 1021.2 hPa | 0 mm | - | 804 W/m² | - |
| 1787845670 | 24.44° C | 82% | 1021.2 hPa | 0 mm | - | 294 W/m² | - |
| 1787845369 | 23.89° C | 84% | 1021.1 hPa | 0 mm | - | 750 W/m² | - |
| 1787845066 | 23.89° C | 83% | 1021.5 hPa | 0 mm | - | 606 W/m² | - |
| 1787844761 | 24.44° C | 82% | 1021.5 hPa | 0 mm | - | 228 W/m² | - |
| 1787844460 | 24.44° C | 82% | 1021.3 hPa | 0 mm | - | 803 W/m² | - |
| 1787844155 | 23.89° C | 83% | 1021.4 hPa | 0 mm | - | 729 W/m² | - |
| 1787843854 | 23.89° C | 84% | 1021.4 hPa | 0 mm | - | 783 W/m² | - |
| 1787843549 | 23.33° C | 85% | 1021.3 hPa | 0 mm | - | 646 W/m² | - |
* Rain latest hour (hover to see other rain measurements)
** Current wind speed in m/s (hover to see current wind gust speed)